Time;durP1;ratioP1;P1;durP2;ratioP2;P2;SDS_P1;SDS_P2;PMS_P1;PMS_P2;Temp;Humidity;BMP_temperature;BMP_pressure;BME280_temperature;BME280_humidity;BME280_pressure;Samples;Min_cycle;Max_cycle;Signal;HPM_P1;HPM_P2
2023/08/31 00:01:39;;;;;;;3.20;2.70;;;14.00;44.90;;;;;;5112376;28;20429;-69
2023/08/31 00:04:07;;;;;;;3.07;2.40;;;14.00;44.60;;;;;;5112614;28;20771;-69
2023/08/31 00:06:32;;;;;;;2.63;2.00;;;14.10;43.80;;;;;;5112617;28;20172;-69
2023/08/31 00:08:58;;;;;;;3.70;2.40;;;14.00;42.40;;;;;;5112456;28;20805;-69
2023/08/31 00:11:24;;;;;;;3.80;2.50;;;14.00;44.10;;;;;;5112544;28;20203;-70
2023/08/31 00:13:49;;;;;;;3.50;2.37;;;14.00;44.00;;;;;;5112445;28;20247;-70
2023/08/31 00:16:15;;;;;;;3.33;2.83;;;14.00;44.90;;;;;;5112460;28;20817;-70
2023/08/31 00:18:40;;;;;;;3.53;2.60;;;14.10;44.70;;;;;;5112877;28;20198;-69
2023/08/31 00:21:06;;;;;;;3.03;2.63;;;14.10;43.40;;;;;;5112491;28;20271;-69
2023/08/31 00:23:31;;;;;;;3.63;2.60;;;14.10;41.30;;;;;;5112167;28;20183;-69
2023/08/31 00:25:57;;;;;;;5.60;2.67;;;14.10;39.80;;;;;;5112498;28;20544;-69
2023/08/31 00:28:25;;;;;;;4.47;2.60;;;14.00;39.40;;;;;;5112577;28;20251;-69
2023/08/31 00:30:51;;;;;;;3.10;2.03;;;14.00;38.80;;;;;;5112418;28;20667;-70
2023/08/31 00:33:17;;;;;;;7.57;2.80;;;14.00;39.70;;;;;;5112093;28;20415;-69
2023/08/31 00:35:43;;;;;;;3.97;2.27;;;13.90;39.60;;;;;;5112196;28;20858;-69
2023/08/31 00:38:09;;;;;;;2.20;1.70;;;13.90;39.60;;;;;;5093978;28;20194;-69
2023/08/31 00:40:41;;;;;;;4.03;2.80;;;13.70;40.40;;;;;;5112593;28;20407;-69
2023/08/31 00:43:07;;;;;;;4.67;3.20;;;13.60;41.90;;;;;;5113045;28;20810;-69
2023/08/31 00:45:34;;;;;;;3.50;2.57;;;13.70;42.70;;;;;;5116393;28;20406;-69
2023/08/31 00:48:00;;;;;;;3.27;2.10;;;13.80;42.20;;;;;;5098044;28;20432;-70
2023/08/31 00:50:26;;;;;;;2.77;2.13;;;13.80;41.60;;;;;;5116302;28;20486;-70
2023/08/31 00:52:52;;;;;;;3.10;2.30;;;13.90;42.10;;;;;;5116013;28;20453;-70
2023/08/31 00:55:17;;;;;;;3.90;2.37;;;13.80;43.40;;;;;;5116652;28;20473;-70
2023/08/31 00:57:44;;;;;;;3.60;2.53;;;13.90;42.80;;;;;;5116497;28;20539;-70
2023/08/31 01:00:10;;;;;;;3.57;1.87;;;13.80;42.40;;;;;;5116531;28;20176;-70
2023/08/31 01:02:57;;;;;;;4.00;2.87;;;13.80;42.10;;;;;;5116372;28;20430;-70
2023/08/31 01:05:34;;;;;;;2.87;2.20;;;13.90;41.80;;;;;;5116329;28;20428;-70
2023/08/31 01:08:08;;;;;;;2.40;1.50;;;13.80;41.50;;;;;;5116300;28;20807;-70
2023/08/31 01:10:43;;;;;;;2.50;1.90;;;13.80;41.30;;;;;;5116261;28;20445;-70
2023/08/31 01:13:19;;;;;;;5.90;2.57;;;13.70;41.00;;;;;;5115698;28;20840;-70
2023/08/31 01:15:50;;;;;;;3.87;2.50;;;13.60;42.90;;;;;;5115711;28;20492;-70
2023/08/31 01:18:18;;;;;;;5.27;2.07;;;13.60;42.50;;;;;;5115876;28;20410;-70
2023/08/31 01:20:52;;;;;;;3.97;2.80;;;13.60;43.10;;;;;;5115604;28;20409;-70
2023/08/31 01:23:28;;;;;;;3.10;2.07;;;13.60;43.60;;;;;;5115605;28;20411;-70
2023/08/31 01:25:54;;;;;;;2.93;2.00;;;13.70;43.10;;;;;;5115831;28;20407;-70
2023/08/31 01:28:20;;;;;;;5.13;2.83;;;13.70;44.60;;;;;;5115485;28;20479;-70
2023/08/31 01:30:45;;;;;;;3.50;2.13;;;13.70;44.60;;;;;;5115536;28;20229;-70
2023/08/31 01:33:12;;;;;;;3.13;2.27;;;13.80;44.70;;;;;;5115358;28;20182;-70
2023/08/31 01:35:48;;;;;;;4.53;2.43;;;13.80;43.40;;;;;;5115418;28;20208;-70
2023/08/31 01:38:18;;;;;;;5.27;2.40;;;13.80;43.20;;;;;;5115379;28;20470;-70
2023/08/31 01:40:54;;;;;;;2.90;1.50;;;13.80;44.30;;;;;;5115217;28;20414;-70
2023/08/31 01:43:22;;;;;;;4.97;1.77;;;13.80;43.70;;;;;;5115101;28;20879;-70
2023/08/31 01:45:48;;;;;;;2.47;1.77;;;13.80;44.50;;;;;;5115204;28;20413;-70
2023/08/31 01:48:15;;;;;;;2.63;2.00;;;13.80;44.70;;;;;;5115268;28;20414;-70
2023/08/31 01:50:41;;;;;;;3.67;2.17;;;13.80;44.10;;;;;;5115066;28;20407;-70
2023/08/31 01:53:06;;;;;;;3.40;1.70;;;13.80;44.10;;;;;;5137129;22;20489;-70
2023/08/31 01:55:32;;;;;;;3.03;2.10;;;13.80;43.70;;;;;;5115134;28;20204;-70
2023/08/31 01:57:58;;;;;;;2.63;1.80;;;13.80;42.20;;;;;;5115159;28;20701;-70
2023/08/31 02:00:25;;;;;;;2.60;1.70;;;13.70;41.30;;;;;;5115208;28;20634;-70
2023/08/31 02:02:51;;;;;;;6.13;2.33;;;13.70;41.50;;;;;;5114706;28;20220;-70
2023/08/31 02:05:16;;;;;;;4.30;2.67;;;13.70;42.40;;;;;;5115059;28;20449;-70
2023/08/31 02:07:42;;;;;;;5.37;1.90;;;13.70;42.10;;;;;;5114780;28;20638;-70
2023/08/31 02:10:08;;;;;;;4.87;2.57;;;13.70;43.00;;;;;;5114954;28;20184;-70
2023/08/31 02:12:35;;;;;;;3.10;2.30;;;13.80;42.40;;;;;;5114841;28;20199;-70
2023/08/31 02:15:01;;;;;;;4.37;2.50;;;13.70;41.40;;;;;;5114683;28;20188;-70
2023/08/31 02:17:27;;;;;;;3.60;2.10;;;13.70;41.90;;;;;;5114642;28;20424;-70
2023/08/31 02:19:52;;;;;;;3.07;2.07;;;13.60;42.20;;;;;;5114963;28;20181;-70
2023/08/31 02:22:18;;;;;;;3.80;2.33;;;13.60;44.50;;;;;;5114338;28;20571;-70
2023/08/31 02:24:44;;;;;;;2.63;1.90;;;13.60;45.00;;;;;;5114811;28;20669;-70
2023/08/31 02:27:09;;;;;;;3.40;1.87;;;13.60;44.80;;;;;;5114553;28;20177;-70
2023/08/31 02:29:35;;;;;;;2.83;2.20;;;13.60;44.50;;;;;;5114752;28;20826;-71
2023/08/31 02:32:04;;;;;;;2.93;2.13;;;13.60;43.20;;;;;;5114224;28;20193;-71
2023/08/31 02:34:30;;;;;;;3.00;2.13;;;13.60;42.90;;;;;;5114367;28;20201;-71
2023/08/31 02:36:55;;;;;;;5.33;2.60;;;13.60;41.50;;;;;;5096002;28;20421;-70
2023/08/31 02:39:21;;;;;;;3.27;2.00;;;13.50;41.00;;;;;;5114412;28;20229;-70
2023/08/31 02:41:46;;;;;;;3.17;2.00;;;13.50;41.50;;;;;;5113963;28;20196;-70
2023/08/31 02:44:12;;;;;;;4.53;2.47;;;13.50;44.50;;;;;;5114112;28;20168;-71
2023/08/31 02:46:37;;;;;;;2.70;2.00;;;13.50;44.80;;;;;;5096117;28;20263;-70
2023/08/31 02:49:03;;;;;;;3.40;2.40;;;13.60;44.50;;;;;;5113932;28;20171;-71
2023/08/31 02:51:29;;;;;;;4.10;2.67;;;13.60;44.50;;;;;;5113591;28;20208;-71
2023/08/31 02:53:54;;;;;;;4.97;3.00;;;13.60;44.50;;;;;;5114175;28;20543;-70
2023/08/31 02:56:20;;;;;;;4.03;2.03;;;13.60;42.90;;;;;;5095472;28;20462;-70
2023/08/31 02:58:45;;;;;;;4.47;2.50;;;13.50;43.30;;;;;;5114104;28;20198;-70
2023/08/31 03:01:12;;;;;;;3.80;2.67;;;13.50;41.20;;;;;;5113637;28;20164;-70
2023/08/31 03:03:42;;;;;;;3.80;2.60;;;13.50;40.90;;;;;;5095330;28;20259;-70
2023/08/31 03:06:09;;;;;;;9.63;3.80;;;13.40;39.20;;;;;;5113045;28;20440;-70
2023/08/31 03:08:36;;;;;;;3.97;2.47;;;13.30;39.90;;;;;;5095332;28;20469;-70
2023/08/31 03:11:02;;;;;;;4.87;2.50;;;13.30;40.00;;;;;;5113666;28;20563;-70
2023/08/31 03:13:28;;;;;;;3.50;2.63;;;13.30;40.80;;;;;;5113330;28;20469;-70
2023/08/31 03:15:54;;;;;;;4.17;2.40;;;13.30;42.40;;;;;;5113578;28;20550;-70
2023/08/31 03:18:19;;;;;;;6.50;3.13;;;13.30;39.80;;;;;;5113504;28;20183;-69
2023/08/31 03:20:45;;;;;;;2.90;1.90;;;13.30;40.50;;;;;;5113429;28;20211;-70
2023/08/31 03:23:11;;;;;;;3.83;2.43;;;13.30;37.10;;;;;;5113098;28;20195;-70
2023/08/31 03:25:36;;;;;;;3.90;2.40;;;13.40;36.30;;;;;;5113370;28;20175;-70
2023/08/31 03:28:02;;;;;;;4.43;3.23;;;13.50;35.50;;;;;;5113397;28;20424;-70
2023/08/31 03:30:28;;;;;;;3.47;2.87;;;13.40;37.30;;;;;;5095113;28;20671;-70
2023/08/31 03:32:53;;;;;;;2.80;2.20;;;13.40;41.20;;;;;;5113525;28;20456;-70
2023/08/31 03:35:19;;;;;;;4.30;2.80;;;13.40;42.50;;;;;;5113125;28;20253;-70
2023/08/31 03:37:47;;;;;;;5.13;2.60;;;13.50;39.80;;;;;;5113231;28;20198;-70
2023/08/31 03:40:13;;;;;;;4.60;2.57;;;13.50;37.90;;;;;;5113060;28;20218;-71
2023/08/31 03:42:39;;;;;;;3.27;2.20;;;13.50;37.30;;;;;;5112670;28;20428;-70
2023/08/31 03:45:05;;;;;;;4.20;2.70;;;13.50;36.60;;;;;;5113098;28;20176;-70
2023/08/31 03:47:30;;;;;;;3.17;2.10;;;13.50;37.00;;;;;;5113030;28;20563;-70
2023/08/31 03:49:56;;;;;;;4.67;3.03;;;13.50;36.20;;;;;;5112965;28;20488;-71
2023/08/31 03:52:23;;;;;;;6.40;2.30;;;13.50;34.40;;;;;;5112414;28;20665;-71
2023/08/31 03:54:49;;;;;;;6.63;2.20;;;13.50;33.40;;;;;;5113038;28;20196;-70
2023/08/31 03:57:14;;;;;;;5.80;2.60;;;13.50;34.00;;;;;;5112757;28;20783;-70
2023/08/31 03:59:40;;;;;;;6.43;2.80;;;13.40;34.70;;;;;;5112898;28;20406;-70
2023/08/31 04:02:06;;;;;;;4.13;2.80;;;13.40;37.60;;;;;;5094209;28;20672;-70
2023/08/31 04:04:32;;;;;;;4.13;3.00;;;13.50;37.50;;;;;;5112570;28;20178;-70
2023/08/31 04:06:58;;;;;;;3.80;2.33;;;13.40;36.90;;;;;;5112602;28;20406;-70
2023/08/31 04:09:23;;;;;;;6.73;2.27;;;13.50;37.10;;;;;;5112791;28;20190;-70
2023/08/31 04:11:49;;;;;;;3.97;2.37;;;13.40;36.30;;;;;;5112439;28;20804;-70
2023/08/31 04:14:14;;;;;;;2.70;2.23;;;13.40;37.30;;;;;;5112556;28;20187;-70
2023/08/31 04:16:40;;;;;;;6.20;3.03;;;13.40;37.90;;;;;;5112792;28;20177;-70
2023/08/31 04:19:05;;;;;;;6.53;3.37;;;13.40;38.60;;;;;;5112617;28;20175;-71
2023/08/31 04:21:31;;;;;;;6.60;3.30;;;13.40;39.20;;;;;;5112288;28;20660;-71
2023/08/31 04:23:59;;;;;;;3.60;2.63;;;13.40;37.80;;;;;;5112531;28;20256;-71
2023/08/31 04:26:25;;;;;;;3.47;2.50;;;13.40;38.30;;;;;;5112853;28;20165;-71
2023/08/31 04:28:50;;;;;;;4.47;2.40;;;13.50;39.30;;;;;;5112840;28;20425;-71
2023/08/31 04:31:16;;;;;;;4.27;3.57;;;13.50;38.20;;;;;;5112499;28;20589;-71
2023/08/31 04:33:42;;;;;;;4.10;2.50;;;13.50;37.90;;;;;;5112537;28;20235;-71
2023/08/31 04:36:08;;;;;;;6.30;3.30;;;13.50;39.30;;;;;;5112295;28;20204;-71
2023/08/31 04:38:37;;;;;;;4.20;2.73;;;13.50;38.20;;;;;;5112485;28;20770;-71
2023/08/31 04:41:03;;;;;;;5.57;3.07;;;13.50;37.20;;;;;;5112406;28;20642;-71
2023/08/31 04:43:29;;;;;;;6.00;3.00;;;13.50;37.30;;;;;;5112092;28;20433;-71
2023/08/31 04:45:55;;;;;;;3.40;2.77;;;13.40;36.70;;;;;;5112475;28;20203;-71
2023/08/31 04:48:21;;;;;;;5.63;3.43;;;13.40;37.00;;;;;;5112181;28;20183;-71
2023/08/31 04:50:47;;;;;;;3.93;3.47;;;13.30;39.10;;;;;;5112359;28;20409;-71
2023/08/31 04:53:13;;;;;;;3.83;2.40;;;13.30;39.10;;;;;;5112046;28;20446;-71
2023/08/31 04:55:38;;;;;;;4.27;2.80;;;13.30;39.10;;;;;;5093919;28;20215;-71
2023/08/31 04:58:04;;;;;;;4.13;2.73;;;13.40;39.20;;;;;;5112249;28;20179;-71
2023/08/31 05:00:30;;;;;;;3.40;2.80;;;13.40;38.70;;;;;;5112155;28;20413;-71
2023/08/31 05:02:56;;;;;;;11.53;3.80;;;13.40;38.80;;;;;;5112236;28;20263;-71
2023/08/31 05:05:22;;;;;;;2.93;2.30;;;13.30;38.30;;;;;;5112277;28;20925;-71
2023/08/31 05:07:47;;;;;;;3.23;2.10;;;13.40;38.50;;;;;;5112138;28;20470;-71
2023/08/31 05:10:13;;;;;;;5.57;4.00;;;13.40;38.40;;;;;;5112352;28;20223;-70
2023/08/31 05:12:39;;;;;;;4.03;2.80;;;13.40;39.20;;;;;;5112082;28;20192;-70
2023/08/31 05:15:05;;;;;;;5.17;3.37;;;13.40;38.90;;;;;;5111895;28;20196;-70
2023/08/31 05:17:31;;;;;;;4.13;3.33;;;13.40;37.30;;;;;;5112034;28;20178;-69
2023/08/31 05:19:57;;;;;;;7.50;2.80;;;13.50;37.20;;;;;;5112097;28;20406;-70
2023/08/31 05:22:22;;;;;;;6.03;2.80;;;13.60;37.00;;;;;;5111844;28;20188;-70
2023/08/31 05:24:48;;;;;;;4.10;3.00;;;13.70;36.20;;;;;;5112185;28;20215;-70
2023/08/31 05:27:14;;;;;;;5.70;3.20;;;13.80;35.40;;;;;;5111824;28;20414;-70
2023/08/31 05:29:39;;;;;;;5.87;3.40;;;13.90;34.40;;;;;;5113535;28;20198;-70
2023/08/31 05:32:06;;;;;;;4.40;2.90;;;13.90;34.40;;;;;;5115674;28;20256;-70
2023/08/31 05:34:34;;;;;;;7.77;4.70;;;14.00;32.50;;;;;;5115995;28;20568;-70
2023/08/31 05:37:00;;;;;;;7.20;4.23;;;13.90;30.00;;;;;;5116056;28;20406;-70
2023/08/31 05:39:25;;;;;;;5.10;2.90;;;13.90;30.40;;;;;;5115827;28;20438;-70
2023/08/31 05:41:51;;;;;;;7.90;3.10;;;14.00;30.20;;;;;;5115604;28;20202;-70
2023/08/31 05:44:16;;;;;;;9.07;4.57;;;14.70;33.10;;;;;;5115482;28;20229;-70
2023/08/31 05:46:42;;;;;;;5.17;2.40;;;16.00;23.30;;;;;;5115738;28;20169;-70
2023/08/31 05:49:08;;;;;;;5.30;2.47;;;17.10;15.30;;;;;;5115265;28;20172;-70
2023/08/31 05:51:34;;;;;;;7.27;2.40;;;18.70;9.30;;;;;;5096357;28;20258;-70
2023/08/31 05:53:59;;;;;;;3.63;2.13;;;20.10;1.00;;;;;;5115096;28;20229;-70
2023/08/31 05:56:25;;;;;;;8.83;3.83;;;20.00;1.00;;;;;;5114849;28;21021;-70
2023/08/31 05:58:54;;;;;;;8.70;3.70;;;19.40;1.00;;;;;;5114987;28;20177;-70
2023/08/31 06:01:20;;;;;;;6.60;4.37;;;18.90;1.70;;;;;;5097233;28;20274;-70
2023/08/31 06:03:45;;;;;;;4.83;3.10;;;18.50;3.80;;;;;;5114605;28;20489;-70
2023/08/31 06:06:11;;;;;;;5.10;2.50;;;18.20;5.20;;;;;;5114894;28;20541;-70
2023/08/31 06:08:36;;;;;;;3.80;2.77;;;17.30;9.10;;;;;;5114854;28;20671;-70
2023/08/31 06:11:02;;;;;;;2.83;2.30;;;16.40;13.70;;;;;;5096459;28;20264;-70
2023/08/31 06:13:28;;;;;;;3.60;2.30;;;16.20;16.20;;;;;;5114227;28;20204;-70
2023/08/31 06:15:55;;;;;;;2.53;1.63;;;16.20;14.80;;;;;;5114671;28;20204;-70
2023/08/31 06:18:21;;;;;;;3.67;2.50;;;16.40;16.20;;;;;;5114541;28;20261;-70
2023/08/31 06:20:48;;;;;;;4.37;2.30;;;16.60;16.20;;;;;;5114771;28;20442;-70
2023/08/31 06:23:14;;;;;;;3.83;2.40;;;16.60;16.10;;;;;;5114510;28;20195;-70
2023/08/31 06:25:39;;;;;;;5.90;2.63;;;16.80;15.00;;;;;;5096576;28;20497;-70
2023/08/31 06:28:08;;;;;;;5.23;2.33;;;17.10;13.80;;;;;;5114717;28;20204;-70
2023/08/31 06:30:34;;;;;;;5.90;4.27;;;17.10;12.90;;;;;;5114909;28;20169;-70
2023/08/31 06:33:00;;;;;;;4.07;1.90;;;17.90;13.30;;;;;;5114725;28;20961;-70
2023/08/31 06:35:25;;;;;;;3.23;2.20;;;18.60;3.80;;;;;;5114704;28;20450;-70
2023/08/31 06:37:51;;;;;;;8.20;4.20;;;18.60;4.90;;;;;;5114620;28;20193;-70
2023/08/31 06:40:17;;;;;;;4.00;2.90;;;18.20;6.30;;;;;;5113989;28;20169;-70
2023/08/31 06:42:42;;;;;;;4.13;1.97;;;17.90;6.70;;;;;;5114275;28;20662;-70
2023/08/31 06:45:09;;;;;;;3.90;2.47;;;17.50;8.40;;;;;;5114754;28;20497;-70
2023/08/31 06:47:35;;;;;;;3.20;2.20;;;17.40;9.50;;;;;;5114575;28;20180;-70
2023/08/31 06:50:00;;;;;;;5.00;2.40;;;17.20;9.70;;;;;;5114535;28;20422;-70
2023/08/31 06:52:27;;;;;;;4.87;2.60;;;17.80;10.20;;;;;;5113837;28;20450;-70
2023/08/31 06:54:56;;;;;;;3.50;1.90;;;17.70;8.50;;;;;;5114404;28;20749;-70
2023/08/31 06:57:25;;;;;;;8.80;3.10;;;17.30;9.10;;;;;;5114221;28;20411;-70
2023/08/31 06:59:50;;;;;;;4.40;2.60;;;17.40;10.60;;;;;;5114269;28;20889;-70
2023/08/31 07:02:16;;;;;;;19.43;5.60;;;18.00;8.20;;;;;;5113994;28;20464;-70
2023/08/31 07:04:42;;;;;;;3.70;2.40;;;18.20;6.30;;;;;;5114222;28;20180;-70
2023/08/31 07:07:13;;;;;;;3.87;2.70;;;18.00;6.20;;;;;;5114245;28;20184;-70
2023/08/31 07:09:38;;;;;;;3.60;2.37;;;18.00;7.50;;;;;;5113909;28;20590;-70
2023/08/31 07:12:04;;;;;;;4.90;2.40;;;18.40;6.40;;;;;;5113518;28;20450;-70
2023/08/31 07:14:30;;;;;;;2.37;1.50;;;18.30;6.40;;;;;;5114920;28;20177;-70
2023/08/31 07:16:58;;;;;;;3.50;1.70;;;18.40;3.70;;;;;;5096688;28;20238;-71
2023/08/31 07:19:24;;;;;;;6.87;2.03;;;18.20;4.70;;;;;;5114508;28;20176;-70
2023/08/31 07:21:49;;;;;;;29.43;12.57;;;17.60;1.10;;;;;;5114869;28;20522;-70
2023/08/31 07:24:15;;;;;;;32.07;11.43;;;17.80;2.70;;;;;;5114711;28;20220;-70
2023/08/31 07:26:40;;;;;;;73.90;24.40;;;18.40;3.40;;;;;;5114944;28;20192;-69
2023/08/31 07:29:06;;;;;;;21.67;7.03;;;21.40;1.00;;;;;;5114773;28;20168;-70
2023/08/31 07:31:32;;;;;;;26.80;12.40;;;22.00;1.00;;;;;;5114395;28;20193;-71
2023/08/31 07:33:58;;;;;;;35.10;20.33;;;22.00;1.00;;;;;;5114556;28;20177;-70
2023/08/31 07:36:24;;;;;;;6.17;3.10;;;21.70;1.00;;;;;;5114528;28;20473;-70
2023/08/31 07:38:50;;;;;;;4.87;2.87;;;20.40;1.00;;;;;;5114732;28;20795;-70
2023/08/31 07:41:15;;;;;;;5.40;2.87;;;20.40;1.00;;;;;;5114326;28;20411;-69
2023/08/31 07:43:41;;;;;;;3.90;2.87;;;20.30;1.00;;;;;;5114397;28;20303;-69
2023/08/31 07:46:06;;;;;;;2.90;2.23;;;20.10;1.00;;;;;;5114533;28;20180;-70
2023/08/31 07:48:32;;;;;;;5.70;2.30;;;20.10;1.00;;;;;;5114296;28;20177;-70
2023/08/31 07:50:58;;;;;;;5.37;3.20;;;20.10;1.00;;;;;;5114031;28;20168;-69
2023/08/31 07:53:23;;;;;;;8.73;3.60;;;20.10;1.00;;;;;;5114084;28;20216;-70
2023/08/31 07:55:56;;;;;;;4.63;2.57;;;19.70;1.00;;;;;;5114279;28;20240;-70
2023/08/31 07:58:23;;;;;;;3.17;2.47;;;19.50;1.00;;;;;;5097300;28;20342;-70
2023/08/31 08:00:49;;;;;;;5.70;3.80;;;20.50;1.00;;;;;;5114165;28;20415;-70
2023/08/31 08:03:14;;;;;;;4.23;2.50;;;23.10;1.00;;;;;;5113889;28;20438;-70
2023/08/31 08:05:41;;;;;;;4.40;3.47;;;23.50;1.00;;;;;;5095618;28;20419;-71
2023/08/31 08:08:07;;;;;;;5.67;3.40;;;23.00;1.00;;;;;;5113571;28;20232;-72
2023/08/31 08:10:32;;;;;;;4.30;2.67;;;22.70;1.00;;;;;;5113753;28;20505;-70
2023/08/31 08:12:58;;;;;;;4.90;3.00;;;22.40;1.00;;;;;;5113566;28;20575;-71
2023/08/31 08:15:24;;;;;;;3.63;2.43;;;21.60;1.00;;;;;;5113800;28;20249;-71
2023/08/31 08:17:50;;;;;;;4.20;3.07;;;21.60;1.00;;;;;;5113789;28;20971;-71
2023/08/31 08:20:15;;;;;;;17.07;7.73;;;20.60;1.00;;;;;;5095330;28;20173;-71
2023/08/31 08:22:41;;;;;;;106.73;39.73;;;22.40;1.00;;;;;;5113275;28;20269;-71
2023/08/31 08:25:07;;;;;;;26.10;16.80;;;23.90;1.00;;;;;;5113889;28;20176;-71
2023/08/31 08:27:33;;;;;;;11.60;7.10;;;26.10;1.00;;;;;;5114116;28;20226;-71
2023/08/31 08:30:01;;;;;;;3.77;3.37;;;26.00;1.00;;;;;;5113864;28;20438;-70
2023/08/31 08:32:27;;;;;;;4.30;3.30;;;26.20;1.00;;;;;;5113470;28;20190;-70
2023/08/31 08:34:52;;;;;;;4.30;3.40;;;25.40;1.00;;;;;;5116225;28;20470;-73
2023/08/31 08:37:19;;;;;;;7.03;3.73;;;25.70;1.00;;;;;;5116041;28;20193;-72
2023/08/31 08:39:49;;;;;;;3.37;2.80;;;26.10;1.00;;;;;;5115718;28;20173;-71
2023/08/31 08:42:18;;;;;;;4.27;3.80;;;26.40;1.00;;;;;;5098084;28;20434;-72
2023/08/31 08:44:47;;;;;;;8.13;6.13;;;27.80;1.00;;;;;;5115986;28;21159;-71
2023/08/31 08:47:13;;;;;;;5.30;4.47;;;27.40;1.00;;;;;;5096435;28;20414;-73
2023/08/31 08:49:39;;;;;;;4.20;3.03;;;25.00;1.00;;;;;;5116440;28;20421;-71
2023/08/31 08:52:05;;;;;;;3.90;3.50;;;24.00;1.00;;;;;;5117097;28;20481;-71
2023/08/31 08:54:31;;;;;;;4.30;3.70;;;23.00;1.00;;;;;;5117812;28;20202;-72
2023/08/31 08:56:57;;;;;;;6.20;4.10;;;21.70;1.00;;;;;;5113879;28;20424;-71
2023/08/31 08:59:24;;;;;;;6.37;5.70;;;20.70;1.00;;;;;;5113438;28;20402;-71
2023/08/31 09:01:49;;;;;;;3.33;3.03;;;20.10;1.00;;;;;;5113070;28;20661;-70
2023/08/31 09:04:15;;;;;;;4.93;3.00;;;19.80;1.00;;;;;;5114348;28;20437;-71
2023/08/31 09:06:41;;;;;;;6.40;3.50;;;19.40;1.00;;;;;;5099793;28;20183;-71
2023/08/31 09:09:10;;;;;;;6.73;3.20;;;19.10;1.00;;;;;;5118341;28;20414;-71
2023/08/31 09:11:36;;;;;;;5.23;3.50;;;19.20;1.00;;;;;;5116899;28;20200;-71
2023/08/31 09:14:17;;;;;;;11.00;3.90;;;19.30;1.00;;;;;;5117162;28;20406;-71
2023/08/31 09:16:47;;;;;;;4.47;3.43;;;19.50;1.00;;;;;;5117332;28;20208;-71
2023/08/31 09:19:21;;;;;;;4.83;3.40;;;19.40;1.00;;;;;;5117060;28;20402;-71
2023/08/31 09:21:57;;;;;;;5.57;3.10;;;19.30;1.00;;;;;;5116692;28;20517;-71
2023/08/31 09:24:23;;;;;;;3.87;3.03;;;19.40;1.00;;;;;;5117335;28;20410;-71
2023/08/31 09:26:57;;;;;;;5.70;4.70;;;20.00;1.00;;;;;;5099376;28;20480;-70
2023/08/31 09:29:22;;;;;;;4.70;2.90;;;20.30;1.00;;;;;;5117091;28;20410;-71
2023/08/31 09:31:48;;;;;;;3.90;3.03;;;19.70;1.00;;;;;;5115986;28;20470;-70
2023/08/31 09:34:14;;;;;;;3.37;3.03;;;19.50;1.00;;;;;;5116813;28;20584;-71
2023/08/31 09:36:41;;;;;;;7.13;3.40;;;19.70;1.00;;;;;;5116875;28;20462;-69
2023/08/31 09:39:07;;;;;;;5.67;3.00;;;20.10;1.00;;;;;;5116918;28;20481;-71
2023/08/31 09:41:34;;;;;;;2.87;2.57;;;19.90;1.00;;;;;;5098243;28;20441;-71
2023/08/31 09:44:26;;;;;;;4.90;3.37;;;19.60;1.00;;;;;;5098594;28;20226;-71
2023/08/31 09:46:52;;;;;;;3.87;3.17;;;19.30;1.00;;;;;;5095444;28;20441;-71
2023/08/31 09:49:20;;;;;;;5.50;3.17;;;19.20;1.00;;;;;;5116725;28;20422;-70
2023/08/31 09:51:48;;;;;;;4.20;2.93;;;19.10;1.00;;;;;;5116192;28;20481;-71
2023/08/31 09:54:19;;;;;;;6.40;3.63;;;19.40;1.00;;;;;;5116177;28;20448;-71
2023/08/31 09:56:46;;;;;;;3.60;3.30;;;19.60;1.00;;;;;;5118267;28;20598;-70
2023/08/31 09:59:14;;;;;;;5.23;3.60;;;19.80;1.00;;;;;;5117323;28;20547;-71
2023/08/31 10:01:45;;;;;;;4.53;2.83;;;20.20;1.00;;;;;;5116049;28;20454;-71
2023/08/31 10:04:12;;;;;;;3.40;3.10;;;20.00;1.00;;;;;;5117553;28;20494;-71
2023/08/31 10:06:42;;;;;;;4.07;3.27;;;20.40;1.00;;;;;;5116078;28;20502;-71
2023/08/31 10:09:11;;;;;;;3.70;2.97;;;20.20;1.00;;;;;;5116162;28;20503;-71
2023/08/31 10:11:39;;;;;;;4.37;3.00;;;20.40;1.00;;;;;;5115577;28;20430;-72
2023/08/31 10:14:05;;;;;;;5.00;2.97;;;20.70;1.00;;;;;;5117196;28;20440;-72
2023/08/31 10:16:31;;;;;;;5.30;4.10;;;20.80;1.00;;;;;;5116797;28;20486;-71
2023/08/31 10:18:57;;;;;;;3.67;3.37;;;21.00;1.00;;;;;;5116260;28;20407;-71
2023/08/31 10:21:23;;;;;;;4.03;2.93;;;21.20;1.00;;;;;;5115985;28;20424;-71
2023/08/31 10:23:50;;;;;;;3.50;3.20;;;21.40;1.00;;;;;;5116092;28;20713;-71
2023/08/31 10:26:29;;;;;;;6.10;3.70;;;21.20;1.00;;;;;;5115966;28;20468;-71
2023/08/31 10:28:55;;;;;;;4.33;3.63;;;20.60;1.00;;;;;;5115712;28;20489;-70
2023/08/31 10:31:24;;;;;;;3.60;3.10;;;20.60;1.00;;;;;;5116395;28;20415;-71
2023/08/31 10:33:59;;;;;;;4.13;3.40;;;20.80;1.00;;;;;;5115929;28;20418;-70
2023/08/31 10:36:35;;;;;;;4.53;3.57;;;20.90;1.00;;;;;;5115886;28;20540;-71
2023/08/31 10:39:04;;;;;;;4.10;3.70;;;21.20;1.00;;;;;;5097219;28;20499;-70
2023/08/31 10:41:34;;;;;;;4.00;3.43;;;21.40;1.00;;;;;;5115608;28;20423;-70
2023/08/31 10:44:00;;;;;;;2.93;2.63;;;21.30;1.00;;;;;;5116302;28;20406;-70
2023/08/31 10:46:29;;;;;;;5.93;3.40;;;21.10;1.00;;;;;;5116218;28;20925;-71
2023/08/31 10:48:57;;;;;;;5.83;3.90;;;20.70;1.00;;;;;;5116526;28;20179;-71
2023/08/31 10:51:32;;;;;;;4.10;3.47;;;20.90;1.00;;;;;;5115649;28;20421;-71
2023/08/31 10:54:05;;;;;;;3.97;3.23;;;21.00;1.00;;;;;;5115876;28;20441;-72
2023/08/31 10:56:31;;;;;;;3.00;2.70;;;20.90;1.00;;;;;;5115247;28;20541;-70
2023/08/31 10:59:01;;;;;;;3.90;2.87;;;20.60;1.00;;;;;;5114562;28;20422;-70
2023/08/31 11:01:58;;;;;;;3.43;3.10;;;20.50;1.00;;;;;;5115472;28;20430;-70
2023/08/31 11:04:28;;;;;;;3.40;3.10;;;20.30;1.00;;;;;;5116684;28;20733;-70
2023/08/31 11:07:16;;;;;;;4.73;3.30;;;20.20;1.00;;;;;;5117104;28;20414;-71
2023/08/31 11:09:42;;;;;;;4.17;3.77;;;20.40;1.00;;;;;;5097974;28;20822;-70
2023/08/31 11:12:09;;;;;;;3.97;3.57;;;20.60;1.00;;;;;;5099462;28;20439;-71
2023/08/31 11:14:34;;;;;;;4.27;3.80;;;20.50;1.00;;;;;;5098974;28;20410;-70
2023/08/31 11:17:01;;;;;;;3.73;3.43;;;20.30;1.00;;;;;;5116297;28;20455;-70
2023/08/31 11:19:28;;;;;;;3.40;3.10;;;20.30;1.00;;;;;;5116533;28;20253;-70
2023/08/31 11:21:54;;;;;;;3.80;3.50;;;20.20;1.00;;;;;;5115436;28;20426;-70
2023/08/31 11:24:21;;;;;;;4.10;3.80;;;20.30;1.00;;;;;;5116921;28;20738;-70
2023/08/31 11:26:49;;;;;;;4.63;4.23;;;20.80;1.00;;;;;;5116773;28;20453;-70
2023/08/31 11:29:15;;;;;;;5.37;4.33;;;20.80;1.00;;;;;;5080373;28;20988;-69
2023/08/31 11:31:41;;;;;;;6.03;3.80;;;20.80;1.00;;;;;;5114715;28;20430;-70
2023/08/31 11:34:11;;;;;;;3.17;2.97;;;20.80;1.00;;;;;;5115016;28;20659;-71
2023/08/31 11:36:37;;;;;;;3.63;3.33;;;20.90;1.00;;;;;;5114983;28;20208;-70
2023/08/31 11:39:03;;;;;;;4.80;3.97;;;20.90;1.00;;;;;;5114864;28;20421;-70
2023/08/31 11:41:36;;;;;;;11.43;4.40;;;20.80;1.00;;;;;;5114084;28;20433;-71
2023/08/31 11:44:04;;;;;;;4.57;3.40;;;21.40;1.00;;;;;;5115129;28;20463;-71
2023/08/31 11:46:31;;;;;;;4.50;4.10;;;21.50;1.00;;;;;;5114880;28;20410;-69
2023/08/31 11:48:58;;;;;;;4.87;4.03;;;21.80;1.00;;;;;;5114275;28;20419;-71
2023/08/31 11:51:25;;;;;;;4.50;3.30;;;22.00;1.00;;;;;;5095725;28;20433;-71
2023/08/31 11:53:51;;;;;;;4.23;3.83;;;22.00;1.00;;;;;;5114622;28;20418;-71
2023/08/31 11:56:16;;;;;;;4.03;3.73;;;21.70;1.00;;;;;;5096241;28;20833;-71
2023/08/31 11:58:42;;;;;;;4.63;4.10;;;21.70;1.00;;;;;;5115419;28;20176;-70
2023/08/31 12:01:08;;;;;;;6.33;4.27;;;21.60;1.00;;;;;;5096699;28;20306;-70
2023/08/31 12:03:47;;;;;;;4.47;3.87;;;21.40;1.00;;;;;;5114689;28;20410;-70
2023/08/31 12:06:16;;;;;;;3.53;3.23;;;21.40;1.00;;;;;;5096522;28;20221;-70
2023/08/31 12:08:42;;;;;;;3.97;3.57;;;21.60;1.00;;;;;;5113513;28;20484;-71
2023/08/31 12:11:07;;;;;;;4.60;4.20;;;21.70;1.00;;;;;;5113737;28;20414;-72
2023/08/31 12:13:33;;;;;;;3.90;3.50;;;22.10;1.00;;;;;;5113053;28;20208;-71
2023/08/31 12:16:01;;;;;;;3.30;3.00;;;22.10;1.00;;;;;;5113407;28;20204;-71
2023/08/31 12:18:31;;;;;;;4.73;3.80;;;21.90;1.00;;;;;;5095039;28;20180;-71
2023/08/31 12:20:57;;;;;;;7.57;3.80;;;21.30;1.00;;;;;;5113901;28;20485;-71
2023/08/31 12:23:23;;;;;;;4.30;3.23;;;21.00;1.00;;;;;;5112993;28;20469;-71
2023/08/31 12:25:53;;;;;;;4.13;3.70;;;21.20;1.00;;;;;;5113335;28;20437;-71
2023/08/31 12:28:20;;;;;;;4.40;3.67;;;21.20;1.00;;;;;;5113340;28;20597;-71
2023/08/31 12:30:50;;;;;;;4.23;3.83;;;21.40;1.00;;;;;;5113630;28;20422;-71
2023/08/31 12:33:17;;;;;;;5.53;3.97;;;21.30;1.00;;;;;;5113190;28;20434;-71
2023/08/31 12:35:43;;;;;;;4.20;3.50;;;21.20;1.00;;;;;;5113301;28;20547;-71
2023/08/31 12:38:09;;;;;;;4.30;3.40;;;21.40;1.00;;;;;;5113602;28;20564;-71
2023/08/31 12:40:35;;;;;;;8.30;4.23;;;21.60;1.00;;;;;;5117168;28;20442;-71
2023/08/31 12:43:00;;;;;;;5.30;3.57;;;21.70;1.00;;;;;;5099040;28;20460;-71
2023/08/31 12:45:26;;;;;;;3.83;3.40;;;21.60;1.00;;;;;;5117518;28;20180;-71
2023/08/31 12:47:51;;;;;;;6.50;4.10;;;21.50;1.00;;;;;;5117306;28;20187;-71
2023/08/31 12:50:17;;;;;;;4.80;4.30;;;21.80;1.00;;;;;;5117704;28;20184;-71